Time;durP1;ratioP1;P1;durP2;ratioP2;P2;SDS_P1;SDS_P2;PMS_P1;PMS_P2;Temp;Humidity;BMP_temperature;BMP_pressure;BME280_temperature;BME280_humidity;BME280_pressure;Samples;Min_cycle;Max_cycle;Signal;HPM_P1;HPM_P2
2023/04/01 00:00:18;;;;;;;26.58;10.63;;;14.70;99.90;;;;;;5053474;28;20100;-85
2023/04/01 00:02:44;;;;;;;28.63;11.73;;;14.70;99.90;;;;;;5051758;28;20112;-85
2023/04/01 00:05:11;;;;;;;29.88;12.27;;;14.70;99.90;;;;;;5051692;28;20029;-84
2023/04/01 00:07:38;;;;;;;117.07;55.13;;;14.70;99.90;;;;;;5052888;28;20087;-86
2023/04/01 00:10:09;;;;;;;42.38;17.02;;;14.80;99.90;;;;;;5051498;28;20032;-84
2023/04/01 00:12:36;;;;;;;31.48;13.02;;;14.70;99.90;;;;;;5051933;28;20108;-85
2023/04/01 00:15:03;;;;;;;22.33;8.75;;;14.70;99.90;;;;;;5051462;28;20428;-83
2023/04/01 00:17:29;;;;;;;18.48;8.57;;;14.70;99.90;;;;;;5051355;28;20029;-85
2023/04/01 00:19:56;;;;;;;20.70;8.25;;;14.60;99.90;;;;;;5051955;28;20111;-85
2023/04/01 00:22:22;;;;;;;21.50;7.93;;;14.60;99.90;;;;;;5051771;28;20018;-86
2023/04/01 00:24:48;;;;;;;17.77;7.20;;;14.50;99.90;;;;;;5052206;28;20020;-85
2023/04/01 00:27:15;;;;;;;19.73;7.07;;;14.40;99.90;;;;;;5052157;28;20051;-83
2023/04/01 00:29:46;;;;;;;21.52;7.07;;;14.30;99.90;;;;;;5051764;28;20024;-85
2023/04/01 00:32:12;;;;;;;22.77;6.80;;;14.20;99.90;;;;;;5052056;28;20052;-84
2023/04/01 00:34:39;;;;;;;19.60;7.90;;;14.10;99.90;;;;;;5052889;28;20024;-84
2023/04/01 00:37:05;;;;;;;20.38;7.53;;;14.10;99.90;;;;;;5054466;28;20083;-82
2023/04/01 00:39:32;;;;;;;25.85;10.25;;;13.90;99.90;;;;;;5056979;28;20071;-85
2023/04/01 00:41:59;;;;;;;30.20;13.57;;;13.90;99.90;;;;;;5056856;28;20459;-82
2023/04/01 00:44:27;;;;;;;54.08;20.92;;;13.90;99.90;;;;;;5054939;28;20082;-82
2023/04/01 00:46:53;;;;;;;40.15;14.48;;;13.80;99.90;;;;;;5054596;28;20505;-82
2023/04/01 00:49:22;;;;;;;38.60;15.88;;;13.80;99.90;;;;;;5055767;28;20099;-83
2023/04/01 00:51:53;;;;;;;26.73;10.25;;;13.80;99.90;;;;;;5055557;28;20038;-82
2023/04/01 00:54:20;;;;;;;18.67;6.47;;;13.80;99.90;;;;;;5054433;28;20036;-82
2023/04/01 00:57:12;;;;;;;23.77;8.55;;;13.80;99.90;;;;;;5054589;28;20037;-82
2023/04/01 00:59:47;;;;;;;18.77;8.57;;;13.90;99.90;;;;;;5087718;28;20060;-81
2023/04/01 01:02:14;;;;;;;12.95;5.85;;;14.00;99.90;;;;;;5054280;28;20025;-82
2023/04/01 01:04:40;;;;;;;18.15;6.10;;;13.90;99.90;;;;;;5053973;28;20036;-82
2023/04/01 01:07:25;;;;;;;14.63;6.18;;;13.90;99.90;;;;;;5054065;28;20017;-83
2023/04/01 01:10:09;;;;;;;20.35;6.60;;;13.90;99.90;;;;;;5053829;28;20044;-80
2023/04/01 01:12:35;;;;;;;18.90;7.18;;;13.70;99.90;;;;;;5053841;28;20029;-81
2023/04/01 01:15:15;;;;;;;19.38;7.43;;;13.70;99.90;;;;;;5054099;28;20075;-82
2023/04/01 01:18:16;;;;;;;49.08;22.48;;;13.70;99.90;;;;;;5055235;28;20017;-82
2023/04/01 01:21:04;;;;;;;21.63;8.60;;;13.70;99.90;;;;;;5053752;28;20451;-81
2023/04/01 01:24:03;;;;;;;19.23;7.32;;;13.70;99.90;;;;;;5053104;28;20021;-84
2023/04/01 01:26:35;;;;;;;16.25;7.18;;;13.70;99.90;;;;;;5055460;28;20020;-82
2023/04/01 01:29:19;;;;;;;;;;;13.60;99.90;;;;;;5056150;28;20025;-84
2023/04/01 01:32:00;;;;;;;20.50;6.75;;;13.60;99.90;;;;;;5055673;28;19940;-81
2023/04/01 01:35:08;;;;;;;14.35;6.63;;;13.60;99.90;;;;;;5054300;28;20025;-82
2023/04/01 01:37:35;;;;;;;15.23;6.10;;;13.60;99.90;;;;;;5049595;28;20095;-82
2023/04/01 01:40:06;;;;;;;18.25;7.05;;;13.60;99.90;;;;;;5053827;28;20017;-82
2023/04/01 01:42:36;;;;;;;26.52;11.68;;;13.60;99.90;;;;;;5054387;28;20021;-82
2023/04/01 01:45:03;;;;;;;20.40;7.32;;;13.60;99.90;;;;;;5055398;28;20021;-80
2023/04/01 01:47:29;;;;;;;21.75;8.55;;;13.60;99.90;;;;;;5054616;28;20467;-80
2023/04/01 01:49:56;;;;;;;31.80;13.80;;;13.60;99.90;;;;;;5054030;28;20040;-83
2023/04/01 01:52:23;;;;;;;20.80;9.57;;;13.60;99.90;;;;;;5054006;28;20367;-82
2023/04/01 01:54:53;;;;;;;21.77;9.55;;;13.50;99.90;;;;;;5054795;28;20115;-82
2023/04/01 01:57:33;;;;;;;13.18;5.90;;;13.40;99.90;;;;;;5054461;28;20020;-81
2023/04/01 02:00:12;;;;;;;11.20;5.68;;;13.40;99.90;;;;;;5048586;28;20048;-81
2023/04/01 02:02:43;;;;;;;13.68;5.32;;;13.20;99.90;;;;;;5050231;28;20017;-80
2023/04/01 02:05:18;;;;;;;14.75;5.43;;;13.20;99.90;;;;;;5053505;28;20035;-80
2023/04/01 02:07:51;;;;;;;13.35;5.50;;;13.10;99.90;;;;;;5053218;28;20029;-81
2023/04/01 02:10:18;;;;;;;15.98;6.75;;;13.00;99.90;;;;;;5054763;28;20036;-81
2023/04/01 02:12:46;;;;;;;15.38;5.03;;;13.00;99.90;;;;;;5054520;28;20032;-82
2023/04/01 02:15:15;;;;;;;11.80;5.28;;;13.00;99.90;;;;;;5052628;28;20107;-81
2023/04/01 02:17:46;;;;;;;13.65;5.00;;;13.00;99.90;;;;;;5052876;28;20737;-81
2023/04/01 02:20:17;;;;;;;13.70;5.05;;;13.00;99.90;;;;;;5053726;28;20028;-82
2023/04/01 02:22:55;;;;;;;13.17;6.30;;;12.80;99.90;;;;;;5052661;28;20028;-80
2023/04/01 02:25:25;;;;;;;17.63;4.60;;;12.70;99.90;;;;;;5052860;28;20048;-79
2023/04/01 02:27:52;;;;;;;11.95;4.80;;;12.70;99.90;;;;;;5052898;28;20025;-81
2023/04/01 02:30:19;;;;;;;14.02;4.15;;;12.70;99.90;;;;;;5052504;28;20032;-83
2023/04/01 02:32:47;;;;;;;8.25;4.40;;;12.60;99.90;;;;;;5052809;28;20025;-82
2023/04/01 02:35:16;;;;;;;16.10;4.30;;;12.60;99.90;;;;;;5053677;28;20064;-81
2023/04/01 02:37:43;;;;;;;11.50;3.50;;;12.50;99.90;;;;;;5052776;28;20044;-78
2023/04/01 02:40:11;;;;;;;13.15;4.90;;;12.50;99.90;;;;;;5053862;28;20029;-78
2023/04/01 02:42:37;;;;;;;11.27;4.60;;;12.40;99.90;;;;;;5051966;28;20564;-78
2023/04/01 02:45:04;;;;;;;22.80;8.70;;;12.40;99.90;;;;;;5052553;28;20021;-78
2023/04/01 02:47:30;;;;;;;28.88;10.45;;;12.40;99.90;;;;;;5053501;28;20375;-80
2023/04/01 02:49:59;;;;;;;24.38;9.32;;;12.40;99.90;;;;;;5052685;28;20025;-79
2023/04/01 02:52:26;;;;;;;26.67;10.07;;;12.30;99.90;;;;;;5052405;28;20052;-79
2023/04/01 02:54:52;;;;;;;17.75;7.15;;;12.30;99.90;;;;;;5046445;28;20411;-80
2023/04/01 02:57:18;;;;;;;16.90;5.53;;;12.30;99.90;;;;;;5051839;28;20025;-79
2023/04/01 02:59:44;;;;;;;11.07;4.28;;;12.20;99.90;;;;;;5052815;28;20024;-79
2023/04/01 03:02:10;;;;;;;8.70;4.10;;;12.20;99.90;;;;;;5053442;28;20029;-80
2023/04/01 03:04:35;;;;;;;9.90;5.03;;;12.20;99.90;;;;;;5053142;28;20075;-80
2023/04/01 03:07:01;;;;;;;10.48;4.88;;;12.20;99.90;;;;;;5053409;28;20033;-78
2023/04/01 03:09:28;;;;;;;16.48;6.35;;;12.20;99.90;;;;;;5053425;28;20021;-78
2023/04/01 03:11:54;;;;;;;13.98;6.30;;;12.20;99.90;;;;;;5052492;28;20028;-80
2023/04/01 03:14:20;;;;;;;12.63;5.28;;;12.10;99.90;;;;;;5052074;28;20056;-79
2023/04/01 03:16:46;;;;;;;14.13;5.28;;;12.10;99.90;;;;;;5052315;28;20029;-80
2023/04/01 03:19:12;;;;;;;9.98;4.85;;;12.00;99.90;;;;;;5051401;28;20021;-80
2023/04/01 03:21:37;;;;;;;12.25;5.80;;;11.90;99.90;;;;;;5052999;28;20163;-82
2023/04/01 03:24:03;;;;;;;11.55;7.13;;;11.90;99.90;;;;;;5053427;28;20443;-81
2023/04/01 03:26:29;;;;;;;12.25;5.53;;;11.90;99.90;;;;;;5052463;28;20021;-79
2023/04/01 03:28:55;;;;;;;7.45;4.95;;;11.80;99.90;;;;;;5053887;28;20020;-78
2023/04/01 03:31:21;;;;;;;10.45;4.07;;;11.90;99.90;;;;;;5053338;28;20509;-79
2023/04/01 03:33:47;;;;;;;7.53;3.50;;;11.80;99.90;;;;;;5054161;28;20017;-81
2023/04/01 03:36:13;;;;;;;8.13;4.60;;;11.70;99.90;;;;;;5052333;28;20021;-81
2023/04/01 03:38:40;;;;;;;11.18;6.78;;;11.80;99.90;;;;;;5052008;28;20024;-80
2023/04/01 03:41:06;;;;;;;16.00;5.60;;;11.70;99.90;;;;;;5053626;28;20036;-82
2023/04/01 03:43:33;;;;;;;11.40;5.53;;;11.70;99.90;;;;;;5052354;28;20051;-84
2023/04/01 03:45:59;;;;;;;8.90;5.20;;;11.70;99.90;;;;;;5052025;28;20075;-81
2023/04/01 03:48:25;;;;;;;16.85;6.78;;;11.80;99.90;;;;;;5053592;28;20029;-79
2023/04/01 03:50:51;;;;;;;11.40;7.10;;;11.80;99.90;;;;;;5052207;28;20029;-81
2023/04/01 03:53:17;;;;;;;11.57;5.95;;;11.80;99.90;;;;;;5051915;28;20123;-80
2023/04/01 03:55:43;;;;;;;11.98;6.50;;;11.90;99.90;;;;;;5052621;28;20021;-80
2023/04/01 03:58:09;;;;;;;16.88;6.30;;;11.90;99.90;;;;;;5052611;28;20044;-79
2023/04/01 04:00:35;;;;;;;50.83;15.70;;;11.90;99.90;;;;;;5052871;28;20036;-79
2023/04/01 04:03:01;;;;;;;31.75;11.07;;;11.90;99.90;;;;;;5052949;28;20033;-82
2023/04/01 04:05:27;;;;;;;26.00;9.32;;;11.80;99.90;;;;;;5051658;28;20403;-83
2023/04/01 04:07:54;;;;;;;14.90;6.30;;;11.70;99.90;;;;;;5051288;28;20087;-81
2023/04/01 04:10:22;;;;;;;15.73;7.57;;;11.70;99.90;;;;;;5054821;28;20094;-79
2023/04/01 04:12:49;;;;;;;15.88;7.45;;;11.70;99.90;;;;;;5056706;28;20032;-82
2023/04/01 04:15:15;;;;;;;10.85;5.25;;;11.80;99.90;;;;;;5080991;28;20083;-81
2023/04/01 04:17:41;;;;;;;12.15;6.47;;;11.70;99.90;;;;;;5056707;28;20017;-80
2023/04/01 04:20:08;;;;;;;13.68;5.15;;;11.70;99.90;;;;;;5048130;28;20410;-82
2023/04/01 04:22:34;;;;;;;12.02;5.60;;;11.70;99.90;;;;;;5055097;28;20066;-81
2023/04/01 04:25:00;;;;;;;13.63;5.53;;;11.70;99.90;;;;;;5054798;28;20371;-80
2023/04/01 04:27:25;;;;;;;16.50;7.10;;;11.60;99.90;;;;;;5055803;28;20029;-82
2023/04/01 04:29:51;;;;;;;29.02;13.35;;;11.70;99.90;;;;;;5055074;28;20037;-82
2023/04/01 04:32:17;;;;;;;26.48;13.27;;;11.70;99.90;;;;;;5055002;28;20448;-82
2023/04/01 04:34:42;;;;;;;13.25;5.95;;;11.60;99.90;;;;;;5054654;28;20029;-80
2023/04/01 04:37:08;;;;;;;12.80;5.90;;;11.70;99.90;;;;;;5054876;28;20506;-80
2023/04/01 04:39:34;;;;;;;9.85;5.30;;;11.60;99.90;;;;;;5055434;28;20486;-80
2023/04/01 04:42:00;;;;;;;9.48;4.93;;;11.70;99.90;;;;;;5054967;28;20116;-82
2023/04/01 04:44:25;;;;;;;11.43;5.07;;;11.70;99.90;;;;;;5056349;28;20024;-81
2023/04/01 04:46:51;;;;;;;12.93;6.00;;;11.70;99.90;;;;;;5055253;28;20110;-84
2023/04/01 04:49:17;;;;;;;16.02;7.65;;;11.70;99.90;;;;;;5056503;28;20351;-80
2023/04/01 04:51:43;;;;;;;17.92;8.50;;;11.80;99.90;;;;;;5055142;28;20185;-80
2023/04/01 04:54:09;;;;;;;19.17;10.07;;;11.80;99.90;;;;;;5055590;28;20036;-80
2023/04/01 04:56:35;;;;;;;20.05;9.60;;;11.70;99.90;;;;;;5054897;28;20024;-79
2023/04/01 04:59:01;;;;;;;38.97;19.35;;;11.70;99.90;;;;;;5053291;28;20060;-83
2023/04/01 05:01:27;;;;;;;32.53;19.50;;;11.70;99.90;;;;;;5053409;28;20024;-79
2023/04/01 05:03:53;;;;;;;58.28;29.05;;;11.60;99.90;;;;;;5055713;28;20025;-81
2023/04/01 05:06:19;;;;;;;42.08;21.70;;;11.70;99.90;;;;;;5054660;28;20021;-82
2023/04/01 05:08:46;;;;;;;27.23;14.88;;;11.70;99.90;;;;;;5055564;28;20043;-82
2023/04/01 05:11:18;;;;;;;24.58;14.43;;;11.70;99.90;;;;;;5054212;28;20150;-81
2023/04/01 05:13:46;;;;;;;35.45;21.17;;;11.60;99.90;;;;;;5055526;28;20029;-79
2023/04/01 05:16:17;;;;;;;29.40;17.52;;;11.60;99.90;;;;;;5054527;28;20021;-79
2023/04/01 05:18:43;;;;;;;24.13;12.90;;;11.60;99.90;;;;;;5056333;28;20104;-82
2023/04/01 05:21:11;;;;;;;36.58;19.38;;;11.60;99.90;;;;;;5055395;28;20061;-81
2023/04/01 05:23:37;;;;;;;82.82;37.38;;;11.50;99.90;;;;;;5054582;28;20344;-82
2023/04/01 05:26:09;;;;;;;82.53;37.63;;;11.60;99.90;;;;;;5054568;28;20512;-82
2023/04/01 05:28:35;;;;;;;40.60;22.17;;;11.60;99.90;;;;;;5054554;28;20112;-80
2023/04/01 05:31:03;;;;;;;27.27;13.75;;;11.60;99.90;;;;;;5054153;28;20115;-79
2023/04/01 05:33:30;;;;;;;21.05;11.43;;;11.60;99.90;;;;;;5054339;28;20075;-81
2023/04/01 05:36:05;;;;;;;25.95;11.48;;;11.60;99.90;;;;;;5054369;28;20478;-84
2023/04/01 05:38:30;;;;;;;22.20;11.23;;;11.60;99.90;;;;;;5054202;28;20036;-81
2023/04/01 05:41:00;;;;;;;22.95;10.63;;;11.60;99.90;;;;;;5054320;28;20435;-82
2023/04/01 05:43:26;;;;;;;15.75;9.52;;;11.70;99.90;;;;;;5054230;28;20067;-83
2023/04/01 05:45:52;;;;;;;25.33;12.13;;;11.70;99.90;;;;;;5053893;28;20021;-81
2023/04/01 05:48:17;;;;;;;23.98;12.18;;;11.70;99.90;;;;;;5054154;28;20363;-80
2023/04/01 05:50:43;;;;;;;26.02;13.10;;;11.80;99.90;;;;;;5054213;28;20056;-83
2023/04/01 05:53:09;;;;;;;19.20;8.88;;;11.60;99.90;;;;;;5055260;28;20112;-82
2023/04/01 05:55:36;;;;;;;20.30;9.52;;;11.60;99.90;;;;;;5055298;28;20024;-84
2023/04/01 05:58:02;;;;;;;18.20;9.75;;;11.60;99.90;;;;;;5053050;28;20123;-78
2023/04/01 06:00:27;;;;;;;22.23;9.10;;;11.70;99.90;;;;;;5054003;28;20025;-82
2023/04/01 06:02:53;;;;;;;19.23;10.20;;;11.70;99.90;;;;;;5060815;28;20111;-79
2023/04/01 06:05:22;;;;;;;20.83;10.68;;;11.60;99.90;;;;;;5053499;28;20447;-79
2023/04/01 06:07:48;;;;;;;20.30;10.15;;;11.70;99.90;;;;;;5067225;28;20016;-81
2023/04/01 06:10:22;;;;;;;14.70;8.02;;;11.60;99.90;;;;;;5053313;28;20074;-80
2023/04/01 06:13:00;;;;;;;12.82;6.90;;;11.50;99.90;;;;;;5053724;28;20033;-79
2023/04/01 06:16:00;;;;;;;10.55;5.35;;;11.60;99.90;;;;;;5053669;28;20071;-80
2023/04/01 06:18:52;;;;;;;13.52;5.10;;;11.60;99.90;;;;;;5053518;28;20078;-83
2023/04/01 06:21:50;;;;;;;8.60;4.85;;;11.60;99.90;;;;;;5053807;28;20134;-80
2023/04/01 06:24:30;;;;;;;12.73;4.88;;;11.60;99.90;;;;;;5042722;28;20033;-81
2023/04/01 06:27:24;;;;;;;13.02;4.93;;;11.60;99.90;;;;;;5056965;28;20036;-79
2023/04/01 06:29:49;;;;;;;9.18;4.70;;;11.50;99.90;;;;;;5068279;28;20103;-81
2023/04/01 06:32:51;;;;;;;7.68;4.50;;;11.60;99.90;;;;;;5066707;28;20108;-81
2023/04/01 06:35:55;;;;;;;8.38;4.70;;;11.60;99.90;;;;;;5052908;28;20035;-81
2023/04/01 06:38:34;;;;;;;14.55;7.43;;;11.50;99.90;;;;;;5053236;28;20043;-82
2023/04/01 06:41:12;;;;;;;14.57;7.40;;;11.60;99.90;;;;;;5052932;28;20029;-80
2023/04/01 06:43:55;;;;;;;12.57;7.63;;;11.70;99.90;;;;;;5053033;28;20167;-81
2023/04/01 06:46:47;;;;;;;16.00;8.13;;;11.60;99.90;;;;;;5058533;28;20362;-81
2023/04/01 06:49:26;;;;;;;17.20;8.38;;;11.60;99.90;;;;;;5060402;28;20515;-81
2023/04/01 06:51:57;;;;;;;18.00;9.65;;;11.60;99.90;;;;;;5068670;28;20595;-81
2023/04/01 06:54:26;;;;;;;21.40;9.52;;;11.60;99.90;;;;;;5072607;28;20028;-82
2023/04/01 06:57:00;;;;;;;21.52;8.25;;;11.60;99.90;;;;;;5072910;28;20029;-82
2023/04/01 06:59:32;;;;;;;12.80;6.43;;;11.60;99.90;;;;;;5072443;28;20178;-81
2023/04/01 07:02:04;;;;;;;10.43;5.68;;;11.60;99.90;;;;;;5073894;28;20054;-81
2023/04/01 07:04:35;;;;;;;15.13;6.93;;;11.60;99.90;;;;;;5073008;28;20378;-82
2023/04/01 07:07:19;;;;;;;14.18;7.03;;;11.70;99.90;;;;;;5063375;28;20016;-80
2023/04/01 07:09:51;;;;;;;13.15;6.60;;;11.60;99.90;;;;;;5060434;28;20465;-81
2023/04/01 07:12:47;;;;;;;15.68;8.13;;;11.70;99.90;;;;;;5053097;28;20044;-80
2023/04/01 07:15:39;;;;;;;15.90;9.75;;;11.70;99.90;;;;;;5047745;28;20025;-82
2023/04/01 07:18:18;;;;;;;14.27;8.88;;;11.80;99.90;;;;;;5052409;28;20032;-83
2023/04/01 07:20:44;;;;;;;11.85;6.50;;;11.60;99.90;;;;;;5053839;28;20028;-82
2023/04/01 07:23:23;;;;;;;12.77;6.53;;;11.60;99.90;;;;;;5051899;28;20460;-80
2023/04/01 07:25:55;;;;;;;19.90;11.23;;;11.70;99.90;;;;;;5051454;28;20356;-80
2023/04/01 07:28:22;;;;;;;62.47;22.80;;;11.70;99.90;;;;;;5053943;28;20074;-82
2023/04/01 07:31:00;;;;;;;36.50;14.63;;;11.70;99.90;;;;;;5052456;28;20029;-81
2023/04/01 07:33:58;;;;;;;46.30;17.75;;;11.70;99.90;;;;;;5061450;28;20032;-82
2023/04/01 07:36:45;;;;;;;17.65;9.05;;;11.70;99.90;;;;;;5030857;28;20037;-81
2023/04/01 07:39:47;;;;;;;27.10;12.15;;;11.70;99.90;;;;;;5050533;28;20075;-81
2023/04/01 07:42:50;;;;;;;36.03;17.25;;;11.80;99.90;;;;;;5052368;28;20029;-83
2023/04/01 07:45:25;;;;;;;20.17;11.05;;;11.70;99.90;;;;;;5054306;28;20021;-81
2023/04/01 07:47:51;;;;;;;27.42;11.05;;;11.50;99.90;;;;;;5057329;28;20108;-81
2023/04/01 07:50:31;;;;;;;27.35;12.98;;;11.50;99.90;;;;;;5056275;28;20078;-84
2023/04/01 07:53:35;;;;;;;23.00;10.75;;;11.40;99.90;;;;;;5056363;28;20035;-83
2023/04/01 07:56:15;;;;;;;22.13;11.45;;;11.30;99.90;;;;;;5018509;28;20140;-83
2023/04/01 07:59:08;;;;;;;17.13;11.50;;;11.30;99.90;;;;;;5034910;28;20436;-81
2023/04/01 08:01:45;;;;;;;16.27;11.05;;;11.10;99.90;;;;;;5017842;28;20035;-83
2023/04/01 08:04:21;;;;;;;21.08;10.48;;;11.10;99.90;;;;;;5015984;28;20076;-82
2023/04/01 08:07:08;;;;;;;17.70;10.35;;;11.10;99.90;;;;;;5016455;28;20458;-81
2023/04/01 08:09:40;;;;;;;13.45;7.80;;;11.10;99.90;;;;;;5035033;28;20116;-81
2023/04/01 08:12:26;;;;;;;17.73;8.77;;;11.00;99.90;;;;;;5017480;28;20083;-81
2023/04/01 08:14:54;;;;;;;15.00;8.77;;;10.90;99.90;;;;;;5033671;28;20116;-80
2023/04/01 08:17:44;;;;;;;20.05;11.68;;;10.90;99.90;;;;;;5032210;28;20180;-81
2023/04/01 08:20:33;;;;;;;46.45;26.13;;;10.90;99.90;;;;;;5034427;28;20112;-82
2023/04/01 08:23:12;;;;;;;72.13;27.05;;;10.90;99.90;;;;;;5017879;28;20060;-81
2023/04/01 08:25:42;;;;;;;28.17;12.13;;;10.80;99.90;;;;;;5034844;28;20160;-83
2023/04/01 08:28:25;;;;;;;16.08;8.35;;;10.80;99.90;;;;;;5034961;28;20087;-80
2023/04/01 08:31:14;;;;;;;36.28;16.05;;;10.70;99.90;;;;;;5038419;28;20041;-82
2023/04/01 08:33:43;;;;;;;41.63;17.80;;;10.70;99.90;;;;;;5046815;28;20094;-80
2023/04/01 08:36:13;;;;;;;71.35;31.17;;;10.60;99.90;;;;;;5056158;28;20148;-82
2023/04/01 08:38:44;;;;;;;61.58;23.10;;;10.50;99.90;;;;;;5037225;28;20029;-81
2023/04/01 08:41:21;;;;;;;55.00;22.50;;;10.50;99.90;;;;;;5036482;28;20030;-82
2023/04/01 08:44:26;;;;;;;46.47;19.27;;;10.60;99.90;;;;;;5051179;28;20517;-80
2023/04/01 08:47:30;;;;;;;38.08;15.60;;;10.50;99.90;;;;;;5056202;28;20083;-81
2023/04/01 08:50:10;;;;;;;37.00;15.95;;;10.50;99.90;;;;;;5052671;28;20033;-81
2023/04/01 08:52:47;;;;;;;28.85;11.23;;;10.50;99.90;;;;;;5048715;28;20021;-83
2023/04/01 08:55:50;;;;;;;60.22;27.10;;;10.50;99.90;;;;;;5055245;28;20067;-82
2023/04/01 08:58:31;;;;;;;14.65;8.25;;;10.50;99.90;;;;;;5035715;28;20037;-82
2023/04/01 09:01:11;;;;;;;21.30;10.00;;;10.50;99.90;;;;;;5035299;28;20026;-84
2023/04/01 09:04:08;;;;;;;27.65;13.23;;;10.50;99.90;;;;;;5035176;28;20018;-83
2023/04/01 09:07:04;;;;;;;38.80;16.55;;;10.50;99.90;;;;;;5034391;28;20060;-82
2023/04/01 09:10:07;;;;;;;22.00;10.95;;;10.60;99.90;;;;;;5050961;28;20020;-84
2023/04/01 09:12:54;;;;;;;26.10;13.18;;;10.60;99.90;;;;;;5075868;28;20459;-83
2023/04/01 09:15:20;;;;;;;30.55;13.80;;;10.60;99.90;;;;;;5074615;28;20029;-82
2023/04/01 09:17:53;;;;;;;32.05;17.30;;;10.60;99.90;;;;;;5074555;28;20115;-83
2023/04/01 09:20:49;;;;;;;27.70;12.13;;;10.60;99.90;;;;;;5072266;28;20020;-82
2023/04/01 09:23:34;;;;;;;22.20;9.40;;;10.70;99.90;;;;;;5054452;28;20055;-83
2023/04/01 09:26:14;;;;;;;27.52;12.18;;;10.80;99.90;;;;;;5055569;28;20067;-80
2023/04/01 09:29:05;;;;;;;22.27;9.25;;;10.80;99.90;;;;;;5054628;28;20119;-82
2023/04/01 09:32:06;;;;;;;35.88;13.55;;;10.80;99.90;;;;;;5053907;28;20033;-81
2023/04/01 09:35:04;;;;;;;19.67;6.63;;;10.80;99.90;;;;;;5047325;28;20036;-82
2023/04/01 09:37:54;;;;;;;19.02;5.60;;;10.90;99.90;;;;;;5053241;28;20033;-82
2023/04/01 09:40:34;;;;;;;22.50;9.27;;;10.90;99.90;;;;;;5051306;28;20021;-85
2023/04/01 09:43:27;;;;;;;10.60;5.90;;;11.00;99.90;;;;;;5054927;28;20521;-80
2023/04/01 09:46:14;;;;;;;6.63;4.03;;;10.90;99.90;;;;;;5055353;28;20031;-81
2023/04/01 09:49:13;;;;;;;10.30;6.35;;;10.90;99.90;;;;;;5055640;28;20078;-81
2023/04/01 09:51:57;;;;;;;9.48;5.07;;;10.90;99.90;;;;;;5054436;28;20033;-83
2023/04/01 09:54:32;;;;;;;39.65;12.55;;;10.90;99.90;;;;;;5053820;28;20064;-84
2023/04/01 09:57:16;;;;;;;50.75;18.02;;;10.90;99.90;;;;;;5054202;28;20025;-82
2023/04/01 10:00:01;;;;;;;21.13;8.70;;;10.90;99.90;;;;;;5053142;28;20060;-83
2023/04/01 10:02:26;;;;;;;37.33;10.52;;;10.90;99.90;;;;;;5053547;28;20028;-84
2023/04/01 10:05:23;;;;;;;23.73;9.90;;;10.80;99.90;;;;;;5053571;28;20021;-82
2023/04/01 10:08:12;;;;;;;15.43;7.20;;;10.80;99.90;;;;;;5053045;28;20108;-82
2023/04/01 10:11:00;;;;;;;29.20;14.48;;;10.70;99.90;;;;;;5048861;28;20115;-85
2023/04/01 10:13:49;;;;;;;19.23;10.95;;;10.70;99.90;;;;;;5053722;28;20357;-82
2023/04/01 10:17:00;;;;;;;18.85;10.07;;;10.60;99.90;;;;;;5034456;28;20368;-84
2023/04/01 10:20:08;;;;;;;11.57;7.55;;;10.50;99.90;;;;;;5032230;28;20017;-81
2023/04/01 10:23:00;;;;;;;18.42;8.52;;;10.50;99.90;;;;;;5024402;28;20033;-83
2023/04/01 10:25:57;;;;;;;21.10;9.00;;;10.50;99.90;;;;;;5023802;28;20056;-84
2023/04/01 10:28:44;;;;;;;15.25;8.30;;;10.40;99.90;;;;;;5020343;28;20022;-81
2023/04/01 10:31:25;;;;;;;11.75;6.68;;;10.40;99.90;;;;;;5023999;28;20080;-83
2023/04/01 10:33:53;;;;;;;13.30;7.45;;;10.40;99.90;;;;;;5014455;28;20086;-81
2023/04/01 10:36:40;;;;;;;13.88;6.85;;;10.40;99.90;;;;;;5003436;28;20021;-83
2023/04/01 10:39:27;;;;;;;17.33;7.65;;;10.40;99.90;;;;;;5031221;28;20502;-84
2023/04/01 10:42:22;;;;;;;15.38;6.60;;;10.40;99.90;;;;;;5015146;28;20026;-82
2023/04/01 10:45:09;;;;;;;15.52;6.30;;;10.40;99.90;;;;;;4981472;28;20068;-83
2023/04/01 10:47:46;;;;;;;19.17;8.10;;;10.40;99.90;;;;;;5032309;28;20030;-82
2023/04/01 10:50:30;;;;;;;17.05;7.90;;;10.40;99.90;;;;;;5015282;28;20017;-84
2023/04/01 10:53:24;;;;;;;24.88;8.05;;;10.40;99.90;;;;;;5023992;28;20545;-85
2023/04/01 10:56:11;;;;;;;16.38;6.65;;;10.30;99.90;;;;;;5012006;28;20067;-85
2023/04/01 10:58:42;;;;;;;23.45;7.68;;;10.30;99.90;;;;;;5040869;28;20051;-81
2023/04/01 11:01:26;;;;;;;13.75;7.28;;;10.20;99.90;;;;;;5067097;28;20386;-83
2023/04/01 11:03:55;;;;;;;21.15;7.55;;;10.30;99.90;;;;;;5062005;28;20390;-83
2023/04/01 11:06:32;;;;;;;25.88;13.70;;;10.40;99.90;;;;;;5037911;28;20021;-84
2023/04/01 11:09:19;;;;;;;18.48;10.73;;;10.40;99.90;;;;;;5054099;28;20021;-82
2023/04/01 11:12:18;;;;;;;18.33;10.65;;;10.40;99.90;;;;;;5052308;28;20044;-86
2023/04/01 11:15:02;;;;;;;18.60;11.00;;;10.30;99.90;;;;;;5052964;28;20371;-81
2023/04/01 11:17:50;;;;;;;12.43;7.57;;;10.40;99.90;;;;;;5053578;28;20027;-82
2023/04/01 11:20:35;;;;;;;16.20;8.68;;;10.30;99.90;;;;;;5048316;28;20017;-85
2023/04/01 11:23:18;;;;;;;23.52;12.52;;;10.40;99.90;;;;;;5045043;28;20479;-82
2023/04/01 11:26:07;;;;;;;16.27;10.20;;;10.40;99.90;;;;;;5052384;28;20040;-81
2023/04/01 11:28:58;;;;;;;24.27;13.45;;;10.40;99.90;;;;;;5052617;28;20032;-83
2023/04/01 11:31:46;;;;;;;34.45;16.38;;;10.40;99.90;;;;;;5052373;28;20466;-84
2023/04/01 11:34:24;;;;;;;29.15;15.18;;;10.50;99.90;;;;;;5052734;28;20106;-81
2023/04/01 11:37:18;;;;;;;35.95;15.15;;;10.40;99.90;;;;;;5052526;28;20017;-81
2023/04/01 11:40:11;;;;;;;37.63;15.00;;;10.40;99.90;;;;;;5052199;28;20025;-83
2023/04/01 11:43:00;;;;;;;31.75;14.60;;;10.40;99.90;;;;;;5052859;28;20025;-82
2023/04/01 11:45:44;;;;;;;35.10;16.75;;;10.50;99.90;;;;;;5052357;28;20025;-83
2023/04/01 11:48:29;;;;;;;36.17;15.10;;;10.40;99.90;;;;;;5052525;28;20021;-83
2023/04/01 11:51:34;;;;;;;27.90;15.63;;;10.40;99.90;;;;;;5052968;28;20056;-83
2023/04/01 11:54:24;;;;;;;22.90;11.75;;;10.50;99.90;;;;;;5046779;28;20061;-80
2023/04/01 11:57:03;;;;;;;17.92;9.95;;;10.50;99.90;;;;;;5053338;28;20028;-80
2023/04/01 11:59:45;;;;;;;40.10;17.00;;;10.40;99.90;;;;;;5054648;28;20078;-82
2023/04/01 12:02:52;;;;;;;27.47;13.37;;;10.50;99.90;;;;;;5059951;28;20033;-83
2023/04/01 12:05:42;;;;;;;20.75;11.40;;;10.40;99.90;;;;;;5075288;28;20041;-82
2023/04/01 12:08:11;;;;;;;18.17;8.00;;;10.40;99.90;;;;;;5039506;28;20047;-81
2023/04/01 12:11:01;;;;;;;20.00;8.68;;;10.50;99.90;;;;;;5032406;28;20029;-83
2023/04/01 12:13:49;;;;;;;25.42;10.48;;;10.40;99.90;;;;;;5032265;28;20021;-81
2023/04/01 12:17:01;;;;;;;16.83;7.47;;;10.50;99.90;;;;;;5048981;28;20057;-82
2023/04/01 12:19:36;;;;;;;13.40;6.88;;;10.50;99.90;;;;;;5041824;28;20032;-81
2023/04/01 12:22:19;;;;;;;16.17;7.47;;;10.40;99.90;;;;;;5051416;28;20123;-83
2023/04/01 12:24:51;;;;;;;13.55;5.88;;;10.40;99.90;;;;;;5049133;28;20120;-80
2023/04/01 12:27:32;;;;;;;20.08;9.95;;;10.30;99.90;;;;;;5050971;28;20358;-82
2023/04/01 12:30:23;;;;;;;21.83;8.63;;;10.40;99.90;;;;;;5057893;28;20459;-81
2023/04/01 12:32:54;;;;;;;12.48;6.93;;;10.40;99.90;;;;;;5056922;28;20028;-80
2023/04/01 12:35:20;;;;;;;18.77;8.43;;;10.40;99.90;;;;;;5054232;28;20078;-82
2023/04/01 12:38:14;;;;;;;12.90;6.80;;;10.50;99.90;;;;;;5054176;28;20056;-83
2023/04/01 12:41:01;;;;;;;15.48;7.80;;;10.30;99.90;;;;;;5046198;28;20491;-82
2023/04/01 12:44:06;;;;;;;12.02;7.38;;;10.20;99.90;;;;;;5055529;28;20036;-82
2023/04/01 12:46:44;;;;;;;13.35;7.22;;;10.30;99.90;;;;;;5056793;28;20024;-82
2023/04/01 12:49:34;;;;;;;19.80;10.10;;;10.30;99.90;;;;;;5055110;28;20021;-80
2023/04/01 12:52:22;;;;;;;13.18;7.43;;;10.30;99.90;;;;;;5055352;28;20075;-80
2023/04/01 12:55:19;;;;;;;12.88;7.10;;;10.40;99.90;;;;;;5055069;28;20025;-83
2023/04/01 12:58:03;;;;;;;14.80;8.45;;;10.40;99.90;;;;;;5056316;28;20119;-83
2023/04/01 13:00:51;;;;;;;19.33;10.55;;;10.40;99.90;;;;;;5056452;28;20096;-82
2023/04/01 13:03:28;;;;;;;18.02;9.40;;;10.40;99.90;;;;;;5054510;28;20021;-79
2023/04/01 13:06:14;;;;;;;19.45;10.93;;;10.40;99.90;;;;;;5055158;28;20048;-82
2023/04/01 13:08:41;;;;;;;31.20;13.32;;;10.30;99.90;;;;;;5054685;28;20028;-81
2023/04/01 13:11:06;;;;;;;14.00;8.05;;;10.40;99.90;;;;;;5056186;28;20017;-78
2023/04/01 13:14:00;;;;;;;17.95;9.88;;;10.30;99.90;;;;;;5056277;28;20066;-79
2023/04/01 13:16:41;;;;;;;23.05;11.70;;;10.40;99.90;;;;;;5056087;28;20052;-79
2023/04/01 13:19:16;;;;;;;17.95;9.55;;;10.40;99.90;;;;;;5054862;28;20028;-81
2023/04/01 13:21:57;;;;;;;20.95;8.88;;;10.50;99.90;;;;;;5054946;28;20510;-82